Time;durP1;ratioP1;P1;durP2;ratioP2;P2;SDS_P1;SDS_P2;PMS_P1;PMS_P2;Temp;Humidity;BMP_temperature;BMP_pressure;BME280_temperature;BME280_humidity;BME280_pressure;Samples;Min_cycle;Max_cycle;Signal;HPM_P1;HPM_P2
2022/09/15 00:00:50;;;;;;;3.97;1.42;;;14.60;99.90;;;;;;4810903;29;20485;-87
2022/09/15 00:03:16;;;;;;;2.50;1.40;;;14.60;99.90;;;;;;4825470;29;20390;-87
2022/09/15 00:05:45;;;;;;;2.55;1.00;;;14.60;99.90;;;;;;4810555;29;20477;-87
2022/09/15 00:08:12;;;;;;;4.22;1.45;;;14.60;99.90;;;;;;4810541;29;20046;-88
2022/09/15 00:10:47;;;;;;;1.17;0.80;;;14.60;99.90;;;;;;4810732;29;20561;-88
2022/09/15 00:13:15;;;;;;;2.80;0.90;;;14.60;99.90;;;;;;4811256;29;20061;-88
2022/09/15 00:15:42;;;;;;;2.72;1.20;;;15.20;99.90;;;;;;4811098;29;20046;-88
2022/09/15 00:18:07;;;;;;;2.60;1.02;;;14.60;99.90;;;;;;4825693;29;20494;-88
2022/09/15 00:20:33;;;;;;;2.42;1.05;;;14.60;99.90;;;;;;4810948;29;20046;-85
2022/09/15 00:22:59;;;;;;;5.20;0.98;;;14.60;99.90;;;;;;4826111;29;20050;-85
2022/09/15 00:25:25;;;;;;;1.83;1.17;;;14.60;99.90;;;;;;4811064;29;20037;-85
2022/09/15 00:27:51;;;;;;;1.98;1.30;;;14.60;99.90;;;;;;4796173;29;20069;-85
2022/09/15 00:30:16;;;;;;;3.15;1.17;;;14.60;99.90;;;;;;4825411;29;20042;-85
2022/09/15 00:32:42;;;;;;;3.40;1.00;;;14.60;99.90;;;;;;4826468;29;20054;-85
2022/09/15 00:35:08;;;;;;;1.55;0.95;;;14.60;99.90;;;;;;4810347;29;20050;-85
2022/09/15 00:37:34;;;;;;;1.85;1.00;;;15.30;99.90;;;;;;4810772;29;20111;-88
2022/09/15 00:40:00;;;;;;;1.25;0.90;;;14.50;99.90;;;;;;4810165;29;20462;-88
2022/09/15 00:42:25;;;;;;;2.28;0.85;;;14.50;99.90;;;;;;4795448;29;20069;-88
2022/09/15 00:45:00;;;;;;;4.47;1.63;;;14.40;99.90;;;;;;4825708;29;20482;-88
2022/09/15 00:47:38;;;;;;;1.38;0.90;;;14.40;99.90;;;;;;4825751;29;20043;-88
2022/09/15 00:50:15;;;;;;;2.30;1.00;;;14.40;99.90;;;;;;4810856;29;20046;-88
2022/09/15 00:52:56;;;;;;;1.00;0.85;;;15.20;99.90;;;;;;4810467;29;20077;-88
2022/09/15 00:55:44;;;;;;;1.58;0.80;;;14.30;99.90;;;;;;4810878;29;20042;-88
2022/09/15 00:58:13;;;;;;;2.35;1.02;;;14.30;99.90;;;;;;4825059;29;20047;-88
2022/09/15 01:00:54;;;;;;;1.17;0.75;;;14.20;99.90;;;;;;4810606;29;20379;-88
2022/09/15 01:03:21;;;;;;;4.20;1.27;;;14.20;99.90;;;;;;4825482;29;20129;-88
2022/09/15 01:06:27;;;;;;;2.15;0.75;;;14.20;99.90;;;;;;4809028;29;20049;-88
2022/09/15 01:09:25;;;;;;;1.05;0.60;;;14.20;99.90;;;;;;4800539;29;20046;-88
2022/09/15 01:11:51;;;;;;;1.35;0.80;;;14.10;99.90;;;;;;4806367;29;20047;-88
2022/09/15 01:14:20;;;;;;;1.80;0.80;;;14.10;99.90;;;;;;4822178;29;20050;-88
2022/09/15 01:16:57;;;;;;;1.10;0.65;;;14.10;99.90;;;;;;4824229;29;20527;-88
2022/09/15 01:19:26;;;;;;;3.75;1.15;;;14.10;99.90;;;;;;4824983;29;20462;-88
2022/09/15 01:22:29;;;;;;;2.72;0.85;;;14.10;99.90;;;;;;4809997;29;20072;-87
2022/09/15 01:25:13;;;;;;;3.83;0.77;;;14.00;99.90;;;;;;4810198;29;20394;-88
2022/09/15 01:27:48;;;;;;;0.95;0.60;;;14.10;99.90;;;;;;4824917;29;20080;-84
2022/09/15 01:30:24;;;;;;;2.22;0.70;;;14.00;99.90;;;;;;4834103;29;20062;-84
2022/09/15 01:33:42;;;;;;;2.45;0.73;;;14.10;99.90;;;;;;4824922;29;20110;-85
2022/09/15 01:36:18;;;;;;;1.42;0.50;;;14.10;99.90;;;;;;4797813;29;20137;-84
2022/09/15 01:39:01;;;;;;;0.65;0.40;;;14.10;99.90;;;;;;4813037;29;20455;-84
2022/09/15 01:42:05;;;;;;;1.15;0.50;;;14.10;99.90;;;;;;4809532;29;20379;-84
2022/09/15 01:45:06;;;;;;;4.00;0.57;;;14.20;99.90;;;;;;4807730;29;20058;-87
2022/09/15 01:47:34;;;;;;;1.23;0.57;;;14.20;99.90;;;;;;4771532;29;20058;-88
2022/09/15 01:50:10;;;;;;;1.42;0.40;;;14.60;99.90;;;;;;4809323;29;20171;-88
2022/09/15 01:52:42;;;;;;;2.28;0.60;;;14.30;99.90;;;;;;4824663;29;20137;-88
2022/09/15 01:55:17;;;;;;;1.60;0.40;;;14.30;99.90;;;;;;4809350;29;20050;-88
2022/09/15 01:57:44;;;;;;;0.95;0.50;;;14.30;99.90;;;;;;4830362;29;20438;-88
2022/09/15 02:00:11;;;;;;;1.30;0.50;;;14.30;99.90;;;;;;4795327;29;20133;-88
2022/09/15 02:02:53;;;;;;;1.70;0.47;;;14.30;99.90;;;;;;4809176;29;20408;-88
2022/09/15 02:05:38;;;;;;;1.15;0.52;;;14.30;99.90;;;;;;4791462;29;20384;-88
2022/09/15 02:08:27;;;;;;;3.17;0.45;;;14.20;99.90;;;;;;4807256;29;20076;-88
2022/09/15 02:11:11;;;;;;;2.45;0.70;;;14.20;99.90;;;;;;4808945;29;20515;-88
2022/09/15 02:13:44;;;;;;;0.75;0.50;;;14.30;99.90;;;;;;4824354;29;20058;-88
2022/09/15 02:16:31;;;;;;;1.73;0.60;;;14.30;99.90;;;;;;4809025;29;20187;-88
2022/09/15 02:19:02;;;;;;;1.15;0.50;;;14.30;99.90;;;;;;4809114;29;20450;-88
2022/09/15 02:22:06;;;;;;;0.38;0.20;;;14.30;99.90;;;;;;4808892;29;20509;-88
2022/09/15 02:24:42;;;;;;;1.02;0.38;;;14.30;99.90;;;;;;4784971;29;20513;-88
2022/09/15 02:27:10;;;;;;;;;;;14.40;99.90;;;;;;4830248;24;20585;-88
2022/09/15 02:29:38;;;;;;;0.82;0.32;;;14.30;99.90;;;;;;4827029;29;19959;-88
2022/09/15 02:32:05;;;;;;;2.47;0.50;;;14.40;99.90;;;;;;4834294;29;20385;-88
2022/09/15 02:34:38;;;;;;;0.98;0.43;;;14.40;99.90;;;;;;4814282;29;20481;-88
2022/09/15 02:37:05;;;;;;;0.75;0.20;;;14.40;99.90;;;;;;4842168;29;20429;-88
2022/09/15 02:39:35;;;;;;;2.75;0.60;;;14.40;99.90;;;;;;4844042;29;20385;-88
2022/09/15 02:42:01;;;;;;;0.77;0.35;;;14.40;99.90;;;;;;4840174;29;20053;-88
2022/09/15 02:44:31;;;;;;;0.93;0.35;;;14.40;99.90;;;;;;4812979;29;20046;-88
2022/09/15 02:46:59;;;;;;;0.20;0.20;;;14.40;99.90;;;;;;4842062;29;20451;-88
2022/09/15 02:49:25;;;;;;;1.85;0.50;;;14.30;99.90;;;;;;4811515;29;20046;-88
2022/09/15 02:51:51;;;;;;;0.63;0.30;;;14.30;99.90;;;;;;4857630;29;20514;-88
2022/09/15 02:54:17;;;;;;;0.45;0.38;;;14.30;99.90;;;;;;4820938;29;20082;-88
2022/09/15 02:56:43;;;;;;;0.75;0.52;;;14.30;99.90;;;;;;4815148;29;20077;-88
2022/09/15 02:59:09;;;;;;;2.03;0.68;;;14.30;99.90;;;;;;4829867;29;20091;-88
2022/09/15 03:01:34;;;;;;;0.13;0.10;;;14.30;99.90;;;;;;4828388;29;20042;-88
2022/09/15 03:04:02;;;;;;;2.13;0.40;;;14.20;99.90;;;;;;4825705;29;20049;-88
2022/09/15 03:06:33;;;;;;;0.60;0.30;;;14.20;99.90;;;;;;4844773;29;20050;-88
2022/09/15 03:09:04;;;;;;;0.30;0.20;;;14.20;99.90;;;;;;4860283;29;20520;-88
2022/09/15 03:11:31;;;;;;;2.00;0.38;;;14.10;99.90;;;;;;4844858;29;20493;-88
2022/09/15 03:14:05;;;;;;;1.42;0.30;;;14.10;99.90;;;;;;4842374;29;20488;-88
2022/09/15 03:16:34;;;;;;;1.65;0.40;;;14.10;99.90;;;;;;4844803;29;20559;-88
2022/09/15 03:19:00;;;;;;;1.17;0.32;;;14.00;99.90;;;;;;4860121;29;20052;-88
2022/09/15 03:21:28;;;;;;;2.20;0.50;;;14.00;99.90;;;;;;4844652;29;20493;-88
2022/09/15 03:24:00;;;;;;;1.42;0.10;;;14.80;99.90;;;;;;4858133;29;20101;-85
2022/09/15 03:26:25;;;;;;;1.70;0.45;;;14.00;99.90;;;;;;4822544;29;20061;-85
2022/09/15 03:28:52;;;;;;;2.65;0.43;;;14.00;99.90;;;;;;4860737;29;20046;-85
2022/09/15 03:31:18;;;;;;;0.82;0.43;;;14.00;99.90;;;;;;4848854;29;20084;-85
2022/09/15 03:33:44;;;;;;;0.85;0.20;;;14.00;99.90;;;;;;4848691;29;20056;-85
2022/09/15 03:36:10;;;;;;;0.63;0.43;;;14.00;99.90;;;;;;4850578;29;20049;-85
2022/09/15 03:38:36;;;;;;;2.80;0.70;;;14.00;99.90;;;;;;4866753;29;20053;-85
2022/09/15 03:41:09;;;;;;;3.42;0.40;;;14.00;99.90;;;;;;4882452;29;20391;-87
2022/09/15 03:43:38;;;;;;;0.43;0.38;;;14.00;99.90;;;;;;4882568;29;20041;-88
2022/09/15 03:46:06;;;;;;;3.15;0.88;;;14.90;99.90;;;;;;4853309;29;20051;-88
2022/09/15 03:48:34;;;;;;;1.42;0.63;;;13.90;99.90;;;;;;4848445;29;20045;-88
2022/09/15 03:51:01;;;;;;;2.05;0.50;;;13.80;99.90;;;;;;4845539;29;20048;-88
2022/09/15 03:53:29;;;;;;;1.88;0.60;;;13.80;99.90;;;;;;4851238;29;20041;-88
2022/09/15 03:56:09;;;;;;;1.33;0.50;;;13.70;99.90;;;;;;4858244;29;20045;-88
2022/09/15 03:58:35;;;;;;;1.35;0.47;;;13.70;99.90;;;;;;4829667;29;20085;-88
2022/09/15 04:01:00;;;;;;;2.38;0.50;;;13.70;99.90;;;;;;4829246;29;20092;-88
2022/09/15 04:03:26;;;;;;;2.47;0.63;;;13.70;99.90;;;;;;4853555;29;20568;-88
2022/09/15 04:05:52;;;;;;;0.63;0.30;;;13.70;99.90;;;;;;4833952;29;20041;-88
2022/09/15 04:08:18;;;;;;;1.50;0.40;;;13.80;99.90;;;;;;4817371;29;20404;-88
2022/09/15 04:10:44;;;;;;;2.47;0.57;;;13.80;99.90;;;;;;4832636;29;20044;-88
2022/09/15 04:13:10;;;;;;;0.68;0.40;;;13.80;99.90;;;;;;4848004;29;20065;-88
2022/09/15 04:15:39;;;;;;;2.42;0.55;;;13.80;99.90;;;;;;4832555;29;20101;-85
2022/09/15 04:18:11;;;;;;;3.33;0.45;;;13.80;99.90;;;;;;4850373;29;20068;-85
2022/09/15 04:20:40;;;;;;;3.20;0.93;;;13.80;99.90;;;;;;4878402;29;20385;-85
2022/09/15 04:23:06;;;;;;;2.03;0.40;;;13.80;99.90;;;;;;4847814;29;20412;-85
2022/09/15 04:25:31;;;;;;;2.38;0.63;;;13.90;99.90;;;;;;4847755;29;20060;-85
2022/09/15 04:27:57;;;;;;;0.82;0.40;;;13.90;99.90;;;;;;4833787;29;20053;-85
2022/09/15 04:30:23;;;;;;;2.45;0.63;;;13.90;99.90;;;;;;4845294;29;20045;-88
2022/09/15 04:32:52;;;;;;;4.25;0.82;;;13.90;99.90;;;;;;4830105;29;20056;-88
2022/09/15 04:35:21;;;;;;;1.00;0.32;;;13.90;99.90;;;;;;4832079;29;20526;-89
2022/09/15 04:37:50;;;;;;;1.73;0.70;;;13.90;99.90;;;;;;4854573;29;20377;-88
2022/09/15 04:40:16;;;;;;;1.35;0.68;;;13.90;99.90;;;;;;4865704;29;20044;-88
2022/09/15 04:42:42;;;;;;;1.65;0.43;;;14.00;99.90;;;;;;4865046;29;20128;-88
2022/09/15 04:45:08;;;;;;;1.83;0.50;;;14.00;99.90;;;;;;4832128;29;20045;-88
2022/09/15 04:47:34;;;;;;;0.98;0.50;;;13.90;99.90;;;;;;4831756;29;20481;-85
2022/09/15 04:50:00;;;;;;;3.10;0.68;;;13.90;99.90;;;;;;4881208;29;20049;-85
2022/09/15 04:52:25;;;;;;;0.52;0.20;;;13.90;99.90;;;;;;4874310;29;20042;-85
2022/09/15 04:54:51;;;;;;;1.45;0.30;;;13.90;99.90;;;;;;4862584;29;20102;-84
2022/09/15 04:57:17;;;;;;;1.25;0.50;;;13.90;99.90;;;;;;4846779;29;20132;-84
2022/09/15 04:59:43;;;;;;;0.95;0.45;;;13.90;99.90;;;;;;4861111;29;20037;-84
2022/09/15 05:02:09;;;;;;;2.38;0.80;;;13.90;99.90;;;;;;4877668;29;20042;-84
2022/09/15 05:04:34;;;;;;;0.95;0.45;;;13.90;99.90;;;;;;4853187;29;20052;-87
2022/09/15 05:07:01;;;;;;;3.83;0.98;;;13.90;99.90;;;;;;4855960;29;20132;-87
2022/09/15 05:09:28;;;;;;;1.48;0.60;;;13.80;99.90;;;;;;4868283;29;20098;-87
2022/09/15 05:11:54;;;;;;;0.35;0.20;;;13.80;99.90;;;;;;4846940;29;20473;-88
2022/09/15 05:14:20;;;;;;;2.60;0.50;;;13.80;99.90;;;;;;4831676;29;20041;-88
2022/09/15 05:16:48;;;;;;;1.83;0.52;;;13.70;99.90;;;;;;4816530;29;20049;-87
2022/09/15 05:19:14;;;;;;;2.55;0.75;;;13.70;99.90;;;;;;4826740;29;20051;-87
2022/09/15 05:21:40;;;;;;;2.17;0.50;;;13.60;99.90;;;;;;4849965;29;20041;-85
2022/09/15 05:24:06;;;;;;;1.30;0.63;;;13.60;99.90;;;;;;4849919;29;20060;-85
2022/09/15 05:26:34;;;;;;;3.90;0.90;;;13.50;99.90;;;;;;4849418;29;20424;-85
2022/09/15 05:29:00;;;;;;;1.05;0.32;;;13.50;99.90;;;;;;4846362;29;20044;-85
2022/09/15 05:31:32;;;;;;;3.10;0.52;;;13.60;99.90;;;;;;4849711;29;20055;-85
2022/09/15 05:34:03;;;;;;;1.35;0.57;;;13.60;99.90;;;;;;4880446;29;20045;-85
2022/09/15 05:36:29;;;;;;;1.20;0.43;;;13.60;99.90;;;;;;4849543;29;20132;-85
2022/09/15 05:38:55;;;;;;;1.27;0.50;;;13.60;99.90;;;;;;4864229;29;20404;-88
2022/09/15 05:41:22;;;;;;;2.92;0.70;;;13.60;99.90;;;;;;4858410;29;20408;-87
2022/09/15 05:43:56;;;;;;;1.08;0.40;;;13.70;99.90;;;;;;4864792;29;20135;-88
2022/09/15 05:46:28;;;;;;;1.83;0.45;;;13.80;99.90;;;;;;4865001;29;20160;-88
2022/09/15 05:48:57;;;;;;;3.58;0.60;;;14.00;99.90;;;;;;4858930;29;20052;-88
2022/09/15 05:51:24;;;;;;;1.60;0.50;;;14.00;99.90;;;;;;4831676;29;20502;-88
2022/09/15 05:53:55;;;;;;;2.53;0.40;;;14.10;99.90;;;;;;4846045;29;20397;-85
2022/09/15 05:56:21;;;;;;;2.15;0.70;;;14.20;99.90;;;;;;4846685;29;20052;-85
2022/09/15 05:58:48;;;;;;;2.60;0.47;;;14.20;99.90;;;;;;4864913;29;20492;-85
2022/09/15 06:01:17;;;;;;;1.00;0.45;;;14.30;99.90;;;;;;4867725;29;20574;-84
2022/09/15 06:03:46;;;;;;;2.50;0.70;;;14.40;99.90;;;;;;4861191;29;20053;-84
2022/09/15 06:06:12;;;;;;;2.65;0.52;;;14.50;99.90;;;;;;4831443;29;20454;-85
2022/09/15 06:08:41;;;;;;;1.38;0.30;;;14.50;99.90;;;;;;4854664;29;20128;-85
2022/09/15 06:11:11;;;;;;;0.95;0.63;;;14.60;99.90;;;;;;4868992;29;20551;-86
2022/09/15 06:13:41;;;;;;;3.70;0.70;;;14.80;99.90;;;;;;4847256;29;20496;-86
2022/09/15 06:16:09;;;;;;;5.47;0.85;;;15.00;99.90;;;;;;4875666;29;20619;-86
2022/09/15 06:18:38;;;;;;;2.85;0.80;;;15.00;99.90;;;;;;4850743;29;20045;-86
2022/09/15 06:21:14;;;;;;;1.48;0.30;;;15.10;99.90;;;;;;4857491;29;20477;-86
2022/09/15 06:23:43;;;;;;;2.03;0.50;;;15.20;99.90;;;;;;4855214;29;20050;-86
2022/09/15 06:26:17;;;;;;;2.85;0.40;;;15.20;99.90;;;;;;4841920;29;20422;-86
2022/09/15 06:28:51;;;;;;;1.25;0.50;;;15.20;99.90;;;;;;4854321;29;20060;-88
2022/09/15 06:31:20;;;;;;;4.10;0.75;;;15.20;99.90;;;;;;4843751;29;20053;-89
2022/09/15 06:33:54;;;;;;;2.90;0.40;;;15.10;99.90;;;;;;4836051;29;20044;-89
2022/09/15 06:36:23;;;;;;;2.33;0.98;;;15.30;99.90;;;;;;4863610;29;20122;-89
2022/09/15 06:38:51;;;;;;;4.00;0.60;;;14.80;99.90;;;;;;4863276;29;20092;-89
2022/09/15 06:41:30;;;;;;;1.13;0.40;;;14.50;99.90;;;;;;4832782;29;20489;-89
2022/09/15 06:44:07;;;;;;;1.40;0.40;;;14.90;99.90;;;;;;4840438;29;20554;-89
2022/09/15 06:46:52;;;;;;;2.33;0.52;;;14.30;99.90;;;;;;4834893;29;20395;-88
2022/09/15 06:49:21;;;;;;;2.60;0.55;;;14.40;99.90;;;;;;4846982;29;20048;-88
2022/09/15 06:52:09;;;;;;;2.20;0.70;;;14.40;99.90;;;;;;4845541;29;20060;-89
2022/09/15 06:54:45;;;;;;;4.35;0.60;;;14.40;99.90;;;;;;4828111;29;20489;-88
2022/09/15 06:57:16;;;;;;;2.33;0.50;;;14.60;99.90;;;;;;4842371;29;20094;-88
2022/09/15 06:59:43;;;;;;;1.88;0.93;;;14.70;99.90;;;;;;4827044;29;20054;-88
2022/09/15 07:02:09;;;;;;;1.30;0.40;;;14.80;99.90;;;;;;4827053;29;20136;-88
2022/09/15 07:04:38;;;;;;;2.67;0.65;;;14.90;99.90;;;;;;4839838;29;20057;-88
2022/09/15 07:07:03;;;;;;;0.88;0.17;;;15.00;99.90;;;;;;4848486;29;20049;-88
2022/09/15 07:09:30;;;;;;;1.55;0.40;;;15.20;99.90;;;;;;4877291;29;20101;-88
2022/09/15 07:11:58;;;;;;;0.25;0.20;;;15.20;99.90;;;;;;4878934;29;20048;-88
2022/09/15 07:14:24;;;;;;;2.47;0.65;;;15.40;99.90;;;;;;4848159;29;20377;-88
2022/09/15 07:16:49;;;;;;;0.73;0.30;;;15.50;99.90;;;;;;4840438;29;20045;-88
2022/09/15 07:19:15;;;;;;;1.15;0.47;;;15.70;99.90;;;;;;4829617;29;20062;-85
2022/09/15 07:21:46;;;;;;;3.50;0.90;;;15.90;99.90;;;;;;4829776;29;20069;-86
2022/09/15 07:24:13;;;;;;;1.85;0.57;;;16.10;99.90;;;;;;4845861;29;20065;-85
2022/09/15 07:26:39;;;;;;;3.55;0.93;;;15.60;99.90;;;;;;4846157;29;20089;-86
2022/09/15 07:29:06;;;;;;;1.92;0.50;;;16.30;99.90;;;;;;4840948;29;20046;-85
2022/09/15 07:31:33;;;;;;;1.00;0.63;;;16.40;99.90;;;;;;4841155;29;20048;-85
2022/09/15 07:34:01;;;;;;;0.55;0.30;;;16.50;99.90;;;;;;4854175;29;20037;-88
2022/09/15 07:36:27;;;;;;;1.55;0.25;;;16.60;99.90;;;;;;4835896;29;20415;-88
2022/09/15 07:38:53;;;;;;;1.08;0.40;;;16.80;99.90;;;;;;4838886;29;20574;-88
2022/09/15 07:41:23;;;;;;;0.93;0.38;;;17.00;99.90;;;;;;4847782;29;20044;-88
2022/09/15 07:43:51;;;;;;;0.93;0.43;;;17.20;99.90;;;;;;4872719;29;20038;-88
2022/09/15 07:46:20;;;;;;;2.72;0.50;;;17.20;99.90;;;;;;4860299;29;20404;-88
2022/09/15 07:48:51;;;;;;;1.67;0.60;;;17.20;99.90;;;;;;4865971;29;20041;-88
2022/09/15 07:51:17;;;;;;;3.08;0.60;;;17.10;99.90;;;;;;4860079;29;20044;-86
2022/09/15 07:53:45;;;;;;;1.33;0.40;;;17.00;99.90;;;;;;4836783;29;20098;-87
2022/09/15 07:56:11;;;;;;;3.50;0.50;;;16.90;99.90;;;;;;4841152;29;20046;-85
2022/09/15 07:58:37;;;;;;;0.88;0.38;;;16.70;99.90;;;;;;4851437;29;20045;-85
2022/09/15 08:01:05;;;;;;;1.73;0.50;;;16.90;99.90;;;;;;4844275;29;20397;-86
2022/09/15 08:03:31;;;;;;;1.15;0.50;;;18.20;99.90;;;;;;4859683;29;20048;-86
2022/09/15 08:06:01;;;;;;;2.63;0.57;;;20.30;99.90;;;;;;4859426;29;20076;-85
2022/09/15 08:08:27;;;;;;;2.25;0.50;;;22.00;99.90;;;;;;4859677;29;20046;-84
2022/09/15 08:10:54;;;;;;;2.78;0.70;;;23.70;99.70;;;;;;4876874;29;20147;-84
2022/09/15 08:13:19;;;;;;;0.73;0.30;;;24.90;96.80;;;;;;4860483;29;20056;-84
2022/09/15 08:15:46;;;;;;;1.05;0.70;;;26.30;92.00;;;;;;4845491;29;20124;-85
2022/09/15 08:18:13;;;;;;;3.22;0.55;;;26.40;90.10;;;;;;4845432;29;20041;-85
2022/09/15 08:20:39;;;;;;;2.63;0.50;;;26.10;89.60;;;;;;4851915;29;20160;-84
2022/09/15 08:23:05;;;;;;;1.50;0.70;;;25.00;89.80;;;;;;4858036;29;20049;-84
2022/09/15 08:25:33;;;;;;;1.83;0.68;;;24.00;91.50;;;;;;4813834;29;20481;-88
2022/09/15 08:27:59;;;;;;;2.08;0.65;;;23.00;92.00;;;;;;4842786;29;20072;-88
2022/09/15 08:30:25;;;;;;;3.80;0.90;;;21.90;94.10;;;;;;4832807;29;20473;-88
2022/09/15 08:32:51;;;;;;;2.47;0.60;;;21.20;94.60;;;;;;4847615;29;20448;-88
2022/09/15 08:35:18;;;;;;;2.55;0.70;;;20.80;96.80;;;;;;4846272;29;20128;-88
2022/09/15 08:37:46;;;;;;;2.20;0.50;;;20.60;96.70;;;;;;4850376;29;20117;-89
2022/09/15 08:40:42;;;;;;;3.15;0.90;;;20.40;96.00;;;;;;4844679;29;20045;-88
2022/09/15 08:43:22;;;;;;;1.20;0.57;;;20.20;95.80;;;;;;4827678;29;20053;-86
2022/09/15 08:46:02;;;;;;;1.02;0.30;;;20.10;96.10;;;;;;4844131;29;20078;-85
2022/09/15 08:48:34;;;;;;;4.95;1.05;;;20.10;96.60;;;;;;4844418;29;20050;-86
2022/09/15 08:51:05;;;;;;;2.38;0.52;;;20.10;95.70;;;;;;4846613;29;20169;-86
2022/09/15 08:53:39;;;;;;;0.85;0.50;;;20.10;94.60;;;;;;4828641;29;20049;-86
2022/09/15 08:56:15;;;;;;;3.67;0.60;;;20.10;95.10;;;;;;4853609;29;20050;-86
2022/09/15 08:58:42;;;;;;;;;;;20.20;95.30;;;;;;4853350;29;20518;-89
2022/09/15 09:01:35;;;;;;;1.25;0.68;;;20.50;95.90;;;;;;4861965;29;19919;-88
2022/09/15 09:04:10;;;;;;;1.95;0.35;;;21.20;94.00;;;;;;4846727;29;20041;-89
2022/09/15 09:06:54;;;;;;;0.88;0.60;;;21.90;92.30;;;;;;4862188;29;20041;-89
2022/09/15 09:09:48;;;;;;;3.22;0.38;;;22.70;92.70;;;;;;4844553;29;20042;-88
2022/09/15 09:12:44;;;;;;;0.63;0.30;;;22.90;91.70;;;;;;4853175;29;20529;-89
2022/09/15 09:15:25;;;;;;;1.15;0.68;;;22.80;91.90;;;;;;4863895;29;20048;-84
2022/09/15 09:18:22;;;;;;;1.50;0.50;;;22.60;91.40;;;;;;4865162;29;20128;-84
2022/09/15 09:21:26;;;;;;;1.08;0.57;;;22.50;91.90;;;;;;4880425;29;20044;-83
2022/09/15 09:24:02;;;;;;;0.88;0.30;;;22.50;92.30;;;;;;4842885;29;20128;-84
2022/09/15 09:26:32;;;;;;;3.42;0.52;;;22.60;91.90;;;;;;4827350;29;20057;-83
2022/09/15 09:29:00;;;;;;;2.15;0.57;;;22.90;92.90;;;;;;4856696;29;20136;-83
2022/09/15 09:31:27;;;;;;;3.20;0.60;;;24.20;91.10;;;;;;4846602;29;20045;-87
2022/09/15 09:34:16;;;;;;;3.58;0.70;;;25.50;86.90;;;;;;4861700;29;20053;-87
2022/09/15 09:36:42;;;;;;;2.65;0.70;;;26.30;90.50;;;;;;4846591;29;20092;-88
2022/09/15 09:39:12;;;;;;;4.30;0.95;;;26.70;87.30;;;;;;4845782;29;20073;-88
2022/09/15 09:41:40;;;;;;;1.27;0.57;;;26.70;88.20;;;;;;4867018;29;20484;-88
2022/09/15 09:44:11;;;;;;;1.55;0.50;;;26.00;88.20;;;;;;4847587;29;20523;-88
2022/09/15 09:46:37;;;;;;;3.13;0.50;;;24.90;91.30;;;;;;4848394;29;20101;-88
2022/09/15 09:49:12;;;;;;;3.60;0.70;;;23.60;91.40;;;;;;4860276;29;20050;-87
2022/09/15 09:51:51;;;;;;;1.30;0.57;;;22.50;92.90;;;;;;4856113;29;20738;-87
2022/09/15 09:54:19;;;;;;;3.40;0.50;;;21.60;94.00;;;;;;4874182;29;20049;-88
2022/09/15 09:56:49;;;;;;;2.00;0.50;;;20.90;94.70;;;;;;4857686;29;20057;-88
2022/09/15 09:59:34;;;;;;;1.48;0.70;;;20.40;96.60;;;;;;4860065;29;20548;-87
2022/09/15 10:02:05;;;;;;;1.17;0.60;;;19.90;97.00;;;;;;4843818;29;20523;-87
2022/09/15 10:04:30;;;;;;;4.00;0.57;;;19.70;98.70;;;;;;4845571;29;20400;-85
2022/09/15 10:06:56;;;;;;;0.93;0.47;;;20.60;97.10;;;;;;4861533;29;20048;-84
2022/09/15 10:09:22;;;;;;;1.42;0.60;;;22.20;97.40;;;;;;4859463;29;20529;-85
2022/09/15 10:11:53;;;;;;;4.32;0.70;;;23.70;95.30;;;;;;4812722;29;20050;-85
2022/09/15 10:14:27;;;;;;;3.25;0.77;;;24.00;92.80;;;;;;4844400;29;20045;-85
2022/09/15 10:17:27;;;;;;;1.10;0.70;;;23.50;93.10;;;;;;4859271;29;20073;-85
2022/09/15 10:19:58;;;;;;;2.25;0.68;;;22.80;93.40;;;;;;4804007;29;20387;-85
2022/09/15 10:22:33;;;;;;;1.23;0.70;;;22.00;95.10;;;;;;4842626;29;20404;-84
2022/09/15 10:25:01;;;;;;;1.10;0.50;;;21.30;96.30;;;;;;4845757;29;20049;-84
2022/09/15 10:27:35;;;;;;;2.25;0.52;;;20.70;97.00;;;;;;4843239;29;20508;-88
2022/09/15 10:30:13;;;;;;;3.80;0.68;;;20.30;97.50;;;;;;4861193;29;20128;-88
2022/09/15 10:32:41;;;;;;;1.67;0.63;;;20.00;98.70;;;;;;4849135;29;20060;-88
2022/09/15 10:35:13;;;;;;;1.55;0.50;;;20.30;99.90;;;;;;4847223;29;20048;-88
2022/09/15 10:37:57;;;;;;;1.05;0.30;;;20.60;98.40;;;;;;4843026;29;20081;-87
2022/09/15 10:40:39;;;;;;;2.17;0.77;;;20.50;96.90;;;;;;4843331;29;20042;-87
2022/09/15 10:43:22;;;;;;;0.50;0.30;;;20.40;98.40;;;;;;4849928;29;20070;-88
2022/09/15 10:45:59;;;;;;;2.70;0.52;;;20.40;98.50;;;;;;4863809;29;20508;-88
2022/09/15 10:48:25;;;;;;;4.50;1.13;;;20.10;98.10;;;;;;4863369;29;20575;-87
2022/09/15 10:51:30;;;;;;;1.02;0.30;;;19.90;99.90;;;;;;4863213;29;20140;-87
2022/09/15 10:54:15;;;;;;;3.17;0.70;;;19.90;99.80;;;;;;4865490;29;20056;-88
2022/09/15 10:56:45;;;;;;;2.42;0.60;;;20.00;98.80;;;;;;4856769;29;20041;-86
2022/09/15 10:59:10;;;;;;;3.30;0.73;;;20.10;98.00;;;;;;4842090;29;20053;-87
2022/09/15 11:01:57;;;;;;;1.77;0.60;;;20.30;97.10;;;;;;4845442;29;20036;-87
2022/09/15 11:04:37;;;;;;;1.40;0.47;;;20.40;95.40;;;;;;4851629;29;20460;-87
2022/09/15 11:07:34;;;;;;;0.70;0.30;;;20.50;93.50;;;;;;4845003;29;20041;-87
2022/09/15 11:10:41;;;;;;;2.20;0.60;;;21.40;94.80;;;;;;4844847;29;20503;-89
2022/09/15 11:13:29;;;;;;;0.85;0.43;;;22.80;93.70;;;;;;4840578;29;20520;-84
2022/09/15 11:16:13;;;;;;;0.30;0.20;;;23.90;90.50;;;;;;4872305;29;20060;-85
2022/09/15 11:18:58;;;;;;;0.88;0.20;;;25.00;91.60;;;;;;4862023;29;20049;-85
2022/09/15 11:21:59;;;;;;;0.75;0.30;;;26.10;88.30;;;;;;4850136;29;20104;-85
2022/09/15 11:24:43;;;;;;;0.82;0.45;;;26.80;82.20;;;;;;4832312;29;20055;-85
2022/09/15 11:27:18;;;;;;;0.35;0.30;;;26.60;76.50;;;;;;4869876;29;20088;-85
2022/09/15 11:30:13;;;;;;;0.67;0.30;;;26.40;77.30;;;;;;4860022;29;20128;-85
2022/09/15 11:33:11;;;;;;;1.08;0.55;;;26.50;80.40;;;;;;4859821;29;20045;-85
2022/09/15 11:35:52;;;;;;;2.45;0.80;;;27.00;80.60;;;;;;4877749;29;20060;-85
2022/09/15 11:38:41;;;;;;;1.25;0.60;;;27.10;75.80;;;;;;4878653;29;20056;-85
2022/09/15 11:41:28;;;;;;;1.17;0.57;;;26.50;78.40;;;;;;4877913;29;20056;-85
2022/09/15 11:44:42;;;;;;;0.63;0.25;;;26.40;79.90;;;;;;4878377;29;20045;-88
2022/09/15 11:47:32;;;;;;;2.72;0.50;;;26.60;81.70;;;;;;4822184;29;20136;-88
2022/09/15 11:50:13;;;;;;;0.90;0.50;;;26.80;79.10;;;;;;4842139;29;20088;-88
2022/09/15 11:52:45;;;;;;;1.65;0.57;;;26.40;77.40;;;;;;4829977;29;20090;-89
2022/09/15 11:55:27;;;;;;;1.63;0.57;;;26.60;81.40;;;;;;4876509;29;20037;-88
2022/09/15 11:57:58;;;;;;;1.20;0.40;;;26.00;78.70;;;;;;4836648;29;20497;-88
2022/09/15 12:00:24;;;;;;;0.52;0.25;;;25.60;81.20;;;;;;4844992;29;20050;-89
2022/09/15 12:03:19;;;;;;;1.45;0.63;;;25.50;81.10;;;;;;4844987;29;20041;-89
2022/09/15 12:05:55;;;;;;;1.25;0.73;;;25.50;79.70;;;;;;4844454;29;20070;-89
2022/09/15 12:08:36;;;;;;;0.90;0.35;;;25.40;82.20;;;;;;4850415;29;20052;-88
2022/09/15 12:11:07;;;;;;;1.90;0.50;;;25.70;82.60;;;;;;4851434;29;20130;-88
2022/09/15 12:13:33;;;;;;;1.33;0.43;;;26.40;82.40;;;;;;4848676;29;20053;-88
2022/09/15 12:16:03;;;;;;;0.28;0.28;;;25.80;79.70;;;;;;4869682;29;20049;-89
2022/09/15 12:18:45;;;;;;;0.88;0.40;;;25.00;81.90;;;;;;4881765;29;20385;-84
2022/09/15 12:21:40;;;;;;;0.73;0.30;;;24.20;84.70;;;;;;4866338;29;20045;-84
2022/09/15 12:24:10;;;;;;;1.02;0.70;;;23.50;86.90;;;;;;4878958;29;20042;-84
2022/09/15 12:26:36;;;;;;;0.20;0.20;;;23.20;86.80;;;;;;4863138;29;20412;-85
2022/09/15 12:29:21;;;;;;;0.93;0.45;;;23.00;85.70;;;;;;4862352;29;20056;-84
2022/09/15 12:31:47;;;;;;;0.65;0.50;;;22.70;85.10;;;;;;4881471;29;20404;-84
2022/09/15 12:34:29;;;;;;;1.83;0.50;;;22.40;83.80;;;;;;4865938;29;20073;-85
2022/09/15 12:37:13;;;;;;;1.00;0.73;;;22.00;84.20;;;;;;4879829;29;20057;-87
2022/09/15 12:39:41;;;;;;;0.93;0.63;;;21.70;85.80;;;;;;4847492;29;20120;-85
2022/09/15 12:42:30;;;;;;;1.52;0.80;;;21.30;89.60;;;;;;4847469;29;20136;-85
2022/09/15 12:45:27;;;;;;;0.80;0.60;;;21.00;90.70;;;;;;4847451;29;20468;-85
2022/09/15 12:48:10;;;;;;;1.15;0.57;;;20.50;91.90;;;;;;4817569;29;20145;-85
2022/09/15 12:50:40;;;;;;;2.17;0.43;;;20.20;92.60;;;;;;4862542;29;20403;-90
2022/09/15 12:53:22;;;;;;;1.63;0.60;;;20.00;93.30;;;;;;4847210;29;20045;-89
2022/09/15 12:55:51;;;;;;;1.13;0.45;;;20.10;93.50;;;;;;4862413;29;20055;-90
2022/09/15 12:58:24;;;;;;;3.97;1.00;;;20.30;93.50;;;;;;4846947;29;20378;-89
2022/09/15 13:00:51;;;;;;;0.95;0.32;;;20.40;93.10;;;;;;4865391;29;20052;-90
2022/09/15 13:03:27;;;;;;;2.35;0.60;;;20.70;92.70;;;;;;4824789;29;20049;-90
2022/09/15 13:06:25;;;;;;;1.73;0.40;;;20.80;91.60;;;;;;4866532;29;20093;-90
2022/09/15 13:08:54;;;;;;;0.73;0.40;;;20.90;91.50;;;;;;4831970;29;20042;-90
2022/09/15 13:11:33;;;;;;;1.33;0.50;;;20.40;91.20;;;;;;4848257;29;20062;-89
2022/09/15 13:14:09;;;;;;;1.08;0.60;;;20.80;91.50;;;;;;4860013;29;20068;-89
2022/09/15 13:16:46;;;;;;;2.17;0.50;;;21.00;90.90;;;;;;4843749;29;20053;-89
2022/09/15 13:19:45;;;;;;;3.60;0.40;;;21.10;90.90;;;;;;4846063;29;20042;-88